createdAt,value
2018-12-13T00:00:09.765Z,29.90
2018-12-13T00:01:09.753Z,30.60
2018-12-13T00:02:09.754Z,28.80
2018-12-13T00:03:09.732Z,27.60
2018-12-13T00:04:09.711Z,26.50
2018-12-13T00:05:09.697Z,28.90
2018-12-13T00:06:09.697Z,29.20
2018-12-13T00:07:09.833Z,25.50
2018-12-13T00:08:09.668Z,28.80
2018-12-13T00:09:09.663Z,28.50
2018-12-13T00:10:09.660Z,28.80
2018-12-13T00:11:09.633Z,30.80
2018-12-13T00:12:09.627Z,28.40
2018-12-13T00:13:09.630Z,25.30
2018-12-13T00:14:09.599Z,27.80
2018-12-13T00:15:09.604Z,28.10
2018-12-13T00:16:09.599Z,29.00
2018-12-13T00:17:09.567Z,28.40
2018-12-13T00:18:09.612Z,27.00
2018-12-13T00:19:09.553Z,30.30
2018-12-13T00:20:09.540Z,27.60
2018-12-13T00:21:09.525Z,26.70
2018-12-13T00:22:09.527Z,32.60
2018-12-13T00:23:09.513Z,25.90
2018-12-13T00:24:09.515Z,28.40
2018-12-13T00:25:09.481Z,27.40
2018-12-13T00:26:09.476Z,25.70
2018-12-13T00:27:09.469Z,28.50
2018-12-13T00:28:09.466Z,26.30
2018-12-13T00:29:09.470Z,27.80
2018-12-13T00:30:09.429Z,27.30
2018-12-13T00:31:09.426Z,28.80
2018-12-13T00:32:09.413Z,27.60
2018-12-13T00:33:09.396Z,26.70
2018-12-13T00:34:09.438Z,29.20
2018-12-13T00:35:09.373Z,26.70
2018-12-13T00:36:09.368Z,26.40
2018-12-13T00:37:09.362Z,27.00
2018-12-13T00:38:09.356Z,28.10
2018-12-13T00:39:09.346Z,27.90
2018-12-13T00:40:09.328Z,28.70
2018-12-13T00:41:09.324Z,27.10
2018-12-13T00:42:09.305Z,25.70
2018-12-13T00:43:09.297Z,29.10
2018-12-13T00:44:09.296Z,27.80
2018-12-13T00:45:09.301Z,28.10
2018-12-13T00:46:09.265Z,28.30
2018-12-13T00:47:09.245Z,27.40
2018-12-13T00:48:09.247Z,24.90
2018-12-13T00:49:09.237Z,28.70
2018-12-13T00:50:09.215Z,26.90
2018-12-13T00:51:09.246Z,28.70
2018-12-13T00:52:09.208Z,25.90
2018-12-13T00:53:09.199Z,26.90
2018-12-13T00:54:09.195Z,30.00
2018-12-13T00:55:09.176Z,27.90
2018-12-13T00:56:09.163Z,25.90
2018-12-13T00:57:09.147Z,26.40
2018-12-13T00:58:09.138Z,26.10
2018-12-13T00:59:09.127Z,25.20
2018-12-13T01:00:09.116Z,28.00
2018-12-13T01:01:09.117Z,26.80
2018-12-13T01:02:09.089Z,27.90
2018-12-13T01:03:09.121Z,26.20
2018-12-13T01:04:09.073Z,24.90
2018-12-13T01:05:09.067Z,26.60
2018-12-13T01:06:09.053Z,26.60
2018-12-13T01:07:09.032Z,24.20
2018-12-13T01:08:09.020Z,27.00
2018-12-13T01:09:09.033Z,27.20
2018-12-13T01:10:09.054Z,26.20
2018-12-13T01:11:08.990Z,27.40
2018-12-13T01:12:09.001Z,26.70
2018-12-13T01:13:08.982Z,27.80
2018-12-13T01:14:08.955Z,24.60
2018-12-13T01:15:08.976Z,24.10
2018-12-13T01:16:08.935Z,27.60
2018-12-13T01:17:08.925Z,26.40
2018-12-13T01:18:08.924Z,27.40
2018-12-13T01:19:08.912Z,26.20
2018-12-13T01:20:08.900Z,26.00
2018-12-13T01:21:08.887Z,26.90
2018-12-13T01:22:08.879Z,26.10
2018-12-13T01:23:08.861Z,26.50
2018-12-13T01:24:08.850Z,25.50
2018-12-13T01:25:08.867Z,26.10
2018-12-13T01:26:08.844Z,28.30
2018-12-13T01:27:08.823Z,28.50
2018-12-13T01:28:08.820Z,26.90
2018-12-13T01:29:08.812Z,26.50
2018-12-13T01:30:08.834Z,23.80
2018-12-13T01:31:08.786Z,26.90
2018-12-13T01:32:08.779Z,25.70
2018-12-13T01:33:08.760Z,25.10
2018-12-13T01:34:08.773Z,26.50
2018-12-13T01:35:08.747Z,25.00
2018-12-13T01:36:08.738Z,28.30
2018-12-13T01:37:08.713Z,25.40
2018-12-13T01:38:08.705Z,25.70
2018-12-13T01:39:08.697Z,26.10
2018-12-13T01:40:08.689Z,27.60
2018-12-13T01:41:08.725Z,24.70
2018-12-13T01:42:08.674Z,26.80
2018-12-13T01:43:08.653Z,28.50
2018-12-13T01:44:08.636Z,27.50
2018-12-13T01:45:08.643Z,24.70
2018-12-13T01:46:08.634Z,25.80
2018-12-13T01:47:08.621Z,26.20
2018-12-13T01:48:08.602Z,26.30
2018-12-13T01:49:08.588Z,27.00
2018-12-13T01:50:08.588Z,27.30
2018-12-13T01:51:08.590Z,25.50
2018-12-13T01:52:08.566Z,29.00
2018-12-13T01:53:08.557Z,27.30
2018-12-13T01:54:08.545Z,25.60
2018-12-13T01:55:08.521Z,26.80
2018-12-13T01:56:08.516Z,26.50
2018-12-13T01:57:08.513Z,24.30
2018-12-13T01:58:08.496Z,27.60
2018-12-13T01:59:08.480Z,24.70
2018-12-13T02:00:08.466Z,26.70
2018-12-13T02:01:08.454Z,24.40
2018-12-13T02:02:08.470Z,28.50
2018-12-13T02:03:08.473Z,28.10
2018-12-13T02:04:08.434Z,27.20
2018-12-13T02:05:08.415Z,25.60
2018-12-13T02:06:08.417Z,26.20
2018-12-13T02:07:08.390Z,28.40
2018-12-13T02:08:08.398Z,27.20
2018-12-13T02:09:08.397Z,26.10
2018-12-13T02:10:08.368Z,27.20
2018-12-13T02:11:08.358Z,25.40
2018-12-13T02:12:08.353Z,26.80
2018-12-13T02:13:08.345Z,26.50
2018-12-13T02:14:08.330Z,25.60
2018-12-13T02:15:08.310Z,25.80
2018-12-13T02:16:08.309Z,27.80
2018-12-13T02:17:08.302Z,25.00
2018-12-13T02:18:08.289Z,24.40
2018-12-13T02:19:08.287Z,29.00
2018-12-13T02:20:08.257Z,26.00
2018-12-13T02:21:08.248Z,25.80
2018-12-13T02:22:08.229Z,26.30
2018-12-13T02:23:08.225Z,25.60
2018-12-13T02:24:08.263Z,27.70
2018-12-13T02:25:08.201Z,29.40
2018-12-13T02:26:08.203Z,25.40
2018-12-13T02:27:08.190Z,27.50
2018-12-13T02:28:08.173Z,25.90
2018-12-13T02:29:08.172Z,27.50
2018-12-13T02:30:08.189Z,27.40
2018-12-13T02:31:08.141Z,25.10
2018-12-13T02:32:08.140Z,27.30
2018-12-13T02:33:08.130Z,25.80
2018-12-13T02:34:08.117Z,28.50
2018-12-13T02:35:08.099Z,26.40
2018-12-13T02:36:08.098Z,29.70
2018-12-13T02:37:08.085Z,26.10
2018-12-13T02:38:08.074Z,26.40
2018-12-13T02:39:08.047Z,27.20
2018-12-13T02:40:08.053Z,30.80
2018-12-13T02:41:08.035Z,30.70
2018-12-13T02:42:08.025Z,29.60
2018-12-13T02:43:08.016Z,29.00
2018-12-13T02:44:08.062Z,26.90
2018-12-13T02:45:07.998Z,27.80
2018-12-13T02:46:08.014Z,28.20
2018-12-13T02:47:07.980Z,30.10
2018-12-13T02:48:07.967Z,29.40
2018-12-13T02:49:07.967Z,30.40
2018-12-13T02:50:07.946Z,29.80
2018-12-13T02:51:07.925Z,29.40
2018-12-13T02:52:07.917Z,28.40
2018-12-13T02:53:07.908Z,29.30
2018-12-13T02:54:07.893Z,29.10
2018-12-13T02:55:07.876Z,30.70
2018-12-13T02:56:07.884Z,30.50
2018-12-13T02:57:07.900Z,29.90
2018-12-13T02:58:07.855Z,33.10
2018-12-13T02:59:07.840Z,28.20
2018-12-13T03:00:07.835Z,32.70
2018-12-13T03:01:07.837Z,31.50
2018-12-13T03:02:07.802Z,36.10
2018-12-13T03:03:07.846Z,33.60
2018-12-13T03:04:07.797Z,30.80
2018-12-13T03:05:07.784Z,31.70
2018-12-13T03:06:07.779Z,30.70
2018-12-13T03:07:13.770Z,31.90
2018-12-13T03:08:08.770Z,31.20
2018-12-13T03:09:07.736Z,36.20
2018-12-13T03:10:07.730Z,36.50
2018-12-13T03:11:07.710Z,37.30
2018-12-13T03:12:07.713Z,38.20
2018-12-13T03:13:07.690Z,38.00
2018-12-13T03:14:07.681Z,38.40
2018-12-13T03:15:07.679Z,43.40
2018-12-13T03:16:07.661Z,42.30
2018-12-13T03:17:07.690Z,43.40
2018-12-13T03:18:07.644Z,42.90
2018-12-13T03:19:07.619Z,41.10
2018-12-13T03:20:07.610Z,39.80
2018-12-13T03:21:07.604Z,42.40
2018-12-13T03:22:07.603Z,43.60
2018-12-13T03:23:07.596Z,45.70
2018-12-13T03:24:07.570Z,44.20
2018-12-13T03:25:07.569Z,46.70
2018-12-13T03:26:07.553Z,41.70
2018-12-13T03:27:07.543Z,45.80
2018-12-13T03:28:07.539Z,43.10
2018-12-13T03:29:07.523Z,43.10
2018-12-13T03:30:07.516Z,43.90
2018-12-13T03:31:07.492Z,40.90
2018-12-13T03:32:07.493Z,41.60
2018-12-13T03:33:07.490Z,44.50
2018-12-13T03:34:07.467Z,39.70
2018-12-13T03:35:07.481Z,42.90
2018-12-13T03:36:07.437Z,42.50
2018-12-13T03:37:07.447Z,40.10
2018-12-13T03:38:07.427Z,40.60
2018-12-13T03:39:07.432Z,44.20
2018-12-13T03:40:07.405Z,42.30
2018-12-13T03:41:07.418Z,39.10
2018-12-13T03:42:07.379Z,40.20
2018-12-13T03:43:07.381Z,42.10
2018-12-13T03:44:07.353Z,39.80
2018-12-13T03:45:07.358Z,41.20
2018-12-13T03:46:07.348Z,40.60
2018-12-13T03:47:07.343Z,42.80
2018-12-13T03:48:07.335Z,38.80
2018-12-13T03:49:07.321Z,41.10
2018-12-13T03:50:07.301Z,37.60
2018-12-13T03:51:07.287Z,39.70
2018-12-13T03:52:07.283Z,40.50
2018-12-13T03:53:07.260Z,40.10
2018-12-13T03:54:07.252Z,37.60
2018-12-13T03:55:07.241Z,34.90
2018-12-13T03:56:07.240Z,41.80
2018-12-13T03:57:07.228Z,38.90
2018-12-13T03:58:07.230Z,40.60
2018-12-13T03:59:07.195Z,41.00
2018-12-13T04:00:07.207Z,43.00
2018-12-13T04:01:07.194Z,42.40
2018-12-13T04:02:07.181Z,41.30
2018-12-13T04:03:07.165Z,46.20
2018-12-13T04:04:07.139Z,44.50
2018-12-13T04:05:07.143Z,41.10
2018-12-13T04:06:07.144Z,44.90
2018-12-13T04:07:07.113Z,43.70
2018-12-13T04:08:07.106Z,42.30
2018-12-13T04:09:07.089Z,42.90
2018-12-13T04:10:07.079Z,45.30
2018-12-13T04:11:07.094Z,44.90
2018-12-13T04:12:07.058Z,41.30
2018-12-13T04:13:07.041Z,43.50
2018-12-13T04:14:07.043Z,42.20
2018-12-13T04:15:07.043Z,41.00
2018-12-13T04:16:07.042Z,42.60
2018-12-13T04:17:07.020Z,43.20
2018-12-13T04:18:06.996Z,40.70
2018-12-13T04:19:06.984Z,40.80
2018-12-13T04:20:07.004Z,41.90
2018-12-13T04:21:06.962Z,38.40
2018-12-13T04:22:07.005Z,39.10
2018-12-13T04:23:06.940Z,40.40
2018-12-13T04:24:06.940Z,42.80
2018-12-13T04:25:06.919Z,37.40
2018-12-13T04:26:06.906Z,34.70
2018-12-13T04:27:06.993Z,37.20
2018-12-13T04:28:06.943Z,38.30
2018-12-13T04:29:06.890Z,37.60
2018-12-13T04:30:06.859Z,41.90
2018-12-13T04:31:06.862Z,35.80
2018-12-13T04:32:06.874Z,38.10
2018-12-13T04:33:06.829Z,38.30
2018-12-13T04:34:06.815Z,40.00
2018-12-13T04:35:06.812Z,38.20
2018-12-13T04:36:06.813Z,39.20
2018-12-13T04:37:06.794Z,37.10
2018-12-13T04:38:13.869Z,41.40
2018-12-13T04:39:06.788Z,34.20
2018-12-13T04:40:06.767Z,33.50
2018-12-13T04:41:06.755Z,31.70
2018-12-13T04:42:06.746Z,37.80
2018-12-13T04:43:06.783Z,33.10
2018-12-13T04:44:06.714Z,36.80
2018-12-13T04:45:06.714Z,36.00
2018-12-13T04:46:06.705Z,35.40
2018-12-13T04:47:06.679Z,35.40
2018-12-13T04:48:06.677Z,33.00
2018-12-13T04:49:06.662Z,35.60
2018-12-13T04:50:06.645Z,35.60
2018-12-13T04:51:06.649Z,35.10
2018-12-13T04:52:06.633Z,34.60
2018-12-13T04:53:06.632Z,35.60
2018-12-13T04:54:06.611Z,35.30
2018-12-13T04:55:06.599Z,34.70
2018-12-13T04:56:06.587Z,34.50
2018-12-13T04:57:06.584Z,32.80
2018-12-13T04:58:06.574Z,35.70
2018-12-13T04:59:06.564Z,36.40
2018-12-13T05:00:06.561Z,33.20
2018-12-13T05:01:06.536Z,33.20
2018-12-13T05:02:06.540Z,34.20
2018-12-13T05:03:06.521Z,33.90
2018-12-13T05:04:06.507Z,32.40
2018-12-13T05:05:06.496Z,35.60
2018-12-13T05:06:06.494Z,33.20
2018-12-13T05:07:06.486Z,33.00
2018-12-13T05:08:06.462Z,34.50
2018-12-13T05:09:06.456Z,31.30
2018-12-13T05:10:06.446Z,32.10
2018-12-13T05:11:06.425Z,32.20
2018-12-13T05:12:06.450Z,33.10
2018-12-13T05:13:06.407Z,34.00
2018-12-13T05:14:06.403Z,32.30
2018-12-13T05:15:06.392Z,36.30
2018-12-13T05:16:06.378Z,34.50
2018-12-13T05:17:06.374Z,33.50
2018-12-13T05:18:06.364Z,33.20
2018-12-13T05:19:06.340Z,37.20
2018-12-13T05:20:06.334Z,32.70
2018-12-13T05:21:06.317Z,33.70
2018-12-13T05:22:06.324Z,31.70
2018-12-13T05:23:06.325Z,33.50
2018-12-13T05:24:06.296Z,32.60
2018-12-13T05:25:06.276Z,34.90
2018-12-13T05:26:06.278Z,31.80
2018-12-13T05:27:06.268Z,33.80
2018-12-13T05:28:06.264Z,33.20
2018-12-13T05:29:06.229Z,35.50
2018-12-13T05:30:06.218Z,35.50
2018-12-13T05:31:06.222Z,33.30
2018-12-13T05:32:06.236Z,33.80
2018-12-13T05:33:06.191Z,31.00
2018-12-13T05:34:06.175Z,32.30
2018-12-13T05:35:06.180Z,36.10
2018-12-13T05:36:06.170Z,30.50
2018-12-13T05:37:06.153Z,30.50
2018-12-13T05:38:06.161Z,31.30
2018-12-13T05:39:06.138Z,32.00
2018-12-13T05:40:06.121Z,34.80
2018-12-13T05:41:06.117Z,29.70
2018-12-13T05:42:06.102Z,34.30
2018-12-13T05:43:06.089Z,29.60
2018-12-13T05:44:06.084Z,31.70
2018-12-13T05:45:06.085Z,33.40
2018-12-13T05:46:06.049Z,29.50
2018-12-13T05:47:06.052Z,33.00
2018-12-13T05:48:06.034Z,31.60
2018-12-13T05:49:06.036Z,31.50
2018-12-13T05:50:06.021Z,34.30
2018-12-13T05:51:06.007Z,34.50
2018-12-13T05:52:05.984Z,32.40
2018-12-13T05:53:05.987Z,30.40
2018-12-13T05:54:05.979Z,33.70
2018-12-13T05:55:05.953Z,32.20
2018-12-13T05:56:05.973Z,32.50
2018-12-13T05:57:05.953Z,32.50
2018-12-13T05:58:05.959Z,38.10
2018-12-13T05:59:05.926Z,34.90
2018-12-13T06:00:05.899Z,35.90
2018-12-13T06:01:05.899Z,34.50
2018-12-13T06:02:05.894Z,34.90
2018-12-13T06:03:05.878Z,33.20
2018-12-13T06:04:05.871Z,32.00
2018-12-13T06:05:05.868Z,33.50
2018-12-13T06:06:05.850Z,33.20
2018-12-13T06:07:05.840Z,33.00
2018-12-13T06:08:05.825Z,33.40
2018-12-13T06:09:05.813Z,32.30
2018-12-13T06:10:05.806Z,35.80
2018-12-13T06:11:05.787Z,33.00
2018-12-13T06:12:05.771Z,33.90
2018-12-13T06:13:05.805Z,34.50
2018-12-13T06:14:05.772Z,35.20
2018-12-13T06:15:05.740Z,31.50
2018-12-13T06:16:05.728Z,35.20
2018-12-13T06:17:05.734Z,33.20
2018-12-13T06:18:06.936Z,35.70
2018-12-13T06:19:05.720Z,35.80
2018-12-13T06:20:05.718Z,31.50
2018-12-13T06:21:11.695Z,31.80
2018-12-13T06:22:06.673Z,33.80
2018-12-13T06:23:05.699Z,33.60
2018-12-13T06:24:05.649Z,33.50
2018-12-13T06:25:05.657Z,34.80
2018-12-13T06:26:05.639Z,32.60
2018-12-13T06:27:05.627Z,34.90
2018-12-13T06:28:05.601Z,33.30
2018-12-13T06:29:05.619Z,34.30
2018-12-13T06:30:07.639Z,34.40
2018-12-13T06:31:05.569Z,31.70
2018-12-13T06:32:05.580Z,32.10
2018-12-13T06:33:05.554Z,35.50
2018-12-13T06:34:05.546Z,32.00
2018-12-13T06:35:05.541Z,32.80
2018-12-13T06:36:05.531Z,31.30
2018-12-13T06:37:05.505Z,30.10
2018-12-13T06:38:05.503Z,32.00
2018-12-13T06:39:05.504Z,32.70
2018-12-13T06:40:05.479Z,30.70
2018-12-13T06:41:05.478Z,32.50
2018-12-13T06:42:05.469Z,32.40
2018-12-13T06:43:05.462Z,33.70
2018-12-13T06:44:05.438Z,35.00
2018-12-13T06:45:05.430Z,35.90
2018-12-13T06:46:05.416Z,31.30
2018-12-13T06:47:05.418Z,32.40
2018-12-13T06:48:05.396Z,32.50
2018-12-13T06:49:05.389Z,31.10
2018-12-13T06:50:05.383Z,30.30
2018-12-13T06:51:05.371Z,31.70
2018-12-13T06:52:05.346Z,31.90
2018-12-13T06:53:05.350Z,31.10
2018-12-13T06:54:05.354Z,34.00
2018-12-13T06:55:05.329Z,30.10
2018-12-13T06:56:05.317Z,34.30
2018-12-13T06:57:05.292Z,32.80
2018-12-13T06:58:05.295Z,35.40
2018-12-13T06:59:05.320Z,33.40
2018-12-13T07:00:05.275Z,34.60
2018-12-13T07:01:05.270Z,33.30
2018-12-13T07:02:05.255Z,34.70
2018-12-13T07:03:05.235Z,32.60
2018-12-13T07:04:05.228Z,34.00
2018-12-13T07:05:05.231Z,31.60
2018-12-13T07:06:05.211Z,33.20
2018-12-13T07:07:05.185Z,33.80
2018-12-13T07:08:07.979Z,33.80
2018-12-13T07:09:05.189Z,32.20
2018-12-13T07:10:05.174Z,31.00
2018-12-13T07:11:05.163Z,31.30
2018-12-13T07:12:05.141Z,32.50
2018-12-13T07:13:05.132Z,34.30
2018-12-13T07:14:06.431Z,33.30
2018-12-13T07:15:05.108Z,32.30
2018-12-13T07:16:05.120Z,36.40
2018-12-13T07:17:05.081Z,34.30
2018-12-13T07:18:05.074Z,34.40
2018-12-13T07:19:05.074Z,36.00
2018-12-13T07:20:05.063Z,34.20
2018-12-13T07:21:05.059Z,36.60
2018-12-13T07:22:05.025Z,33.20
2018-12-13T07:23:05.025Z,32.70
2018-12-13T07:24:05.018Z,34.10
2018-12-13T07:25:05.000Z,33.30
2018-12-13T07:26:04.997Z,33.00
2018-12-13T07:27:04.981Z,31.80
2018-12-13T07:28:04.971Z,31.10
2018-12-13T07:29:04.955Z,34.00
2018-12-13T07:30:04.955Z,31.10
2018-12-13T07:31:04.930Z,35.90
2018-12-13T07:32:04.953Z,33.20
2018-12-13T07:33:04.916Z,33.00
2018-12-13T07:34:04.914Z,31.40
2018-12-13T07:35:04.897Z,33.10
2018-12-13T07:36:04.884Z,33.80
2018-12-13T07:37:04.881Z,33.80
2018-12-13T07:38:04.870Z,34.70
2018-12-13T07:39:04.852Z,33.10
2018-12-13T07:40:04.832Z,34.90
2018-12-13T07:41:04.826Z,34.30
2018-12-13T07:42:04.824Z,36.10
2018-12-13T07:43:04.808Z,33.80
2018-12-13T07:44:04.798Z,39.00
2018-12-13T07:45:04.795Z,35.40
2018-12-13T07:46:04.779Z,33.50
2018-12-13T07:47:04.758Z,35.60
2018-12-13T07:48:04.798Z,34.20
2018-12-13T07:49:04.751Z,32.90
2018-12-13T07:50:04.739Z,33.60
2018-12-13T07:51:04.724Z,36.80
2018-12-13T07:52:04.725Z,31.80
2018-12-13T07:53:04.709Z,34.20
2018-12-13T07:54:04.708Z,35.00
2018-12-13T07:55:04.686Z,35.10
2018-12-13T07:56:04.662Z,35.00
2018-12-13T07:57:04.668Z,32.50
2018-12-13T07:58:04.654Z,33.60
2018-12-13T07:59:04.656Z,37.10
2018-12-13T08:00:04.637Z,34.70
2018-12-13T08:01:04.618Z,37.10
2018-12-13T08:02:04.615Z,39.50
2018-12-13T08:03:04.603Z,37.00
2018-12-13T08:04:04.586Z,39.00
2018-12-13T08:05:04.567Z,44.00
2018-12-13T08:06:04.556Z,44.60
2018-12-13T08:07:04.564Z,37.60
2018-12-13T08:08:04.554Z,37.90
2018-12-13T08:09:04.530Z,36.70
2018-12-13T08:10:04.533Z,35.20
2018-12-13T08:11:04.577Z,39.60
2018-12-13T08:12:04.497Z,35.90
2018-12-13T08:13:04.494Z,38.00
2018-12-13T08:14:04.488Z,40.50
2018-12-13T08:15:04.500Z,37.70
2018-12-13T08:16:04.462Z,37.00
2018-12-13T08:17:04.441Z,37.70
2018-12-13T08:18:04.427Z,39.40
2018-12-13T08:19:04.417Z,41.20
2018-12-13T08:20:04.405Z,34.80
2018-12-13T08:21:04.407Z,37.60
2018-12-13T08:22:04.388Z,38.40
2018-12-13T08:23:04.374Z,36.30
2018-12-13T08:24:04.377Z,35.20
2018-12-13T08:25:04.355Z,36.70
2018-12-13T08:26:04.360Z,39.00
2018-12-13T08:27:04.334Z,39.50
2018-12-13T08:28:04.320Z,37.50
2018-12-13T08:29:04.315Z,35.80
2018-12-13T08:30:04.301Z,36.50
2018-12-13T08:31:04.288Z,36.40
2018-12-13T08:32:04.285Z,34.50
2018-12-13T08:33:04.276Z,35.80
2018-12-13T08:34:04.264Z,40.20
2018-12-13T08:35:04.245Z,38.90
2018-12-13T08:36:04.237Z,38.40
2018-12-13T08:37:04.224Z,42.60
2018-12-13T08:38:04.215Z,38.00
2018-12-13T08:39:04.212Z,37.20
2018-12-13T08:40:04.194Z,38.20
2018-12-13T08:41:04.181Z,39.50
2018-12-13T08:42:04.170Z,34.60
2018-12-13T08:43:04.162Z,35.20
2018-12-13T08:44:04.192Z,35.10
2018-12-13T08:45:04.141Z,33.70
2018-12-13T08:46:04.140Z,34.20
2018-12-13T08:47:04.117Z,35.90
2018-12-13T08:48:04.109Z,36.00
2018-12-13T08:49:04.098Z,37.10
2018-12-13T08:50:04.104Z,36.10
2018-12-13T08:51:04.082Z,34.80
2018-12-13T08:52:04.072Z,34.00
2018-12-13T08:53:04.055Z,31.50
2018-12-13T08:54:04.045Z,36.70
2018-12-13T08:55:04.065Z,34.50
2018-12-13T08:56:04.023Z,35.20
2018-12-13T08:57:04.031Z,36.40
2018-12-13T08:58:04.001Z,34.90
2018-12-13T08:59:03.992Z,34.90
2018-12-13T09:00:03.983Z,34.40
2018-12-13T09:01:03.983Z,34.40
2018-12-13T09:02:03.959Z,34.10
2018-12-13T09:03:03.952Z,35.10
2018-12-13T09:04:03.936Z,33.70
2018-12-13T09:05:03.926Z,38.80
2018-12-13T09:06:03.925Z,36.80
2018-12-13T09:07:03.911Z,36.90
2018-12-13T09:08:03.902Z,36.00
2018-12-13T09:09:03.896Z,35.60
2018-12-13T09:10:03.876Z,39.50
2018-12-13T09:11:03.872Z,34.70
2018-12-13T09:12:03.852Z,38.30
2018-12-13T09:13:03.848Z,34.70
2018-12-13T09:14:03.834Z,39.00
2018-12-13T09:15:03.821Z,37.80
2018-12-13T09:16:03.827Z,35.40
2018-12-13T09:17:03.800Z,36.50
2018-12-13T09:18:03.788Z,40.90
2018-12-13T09:19:03.777Z,36.90
2018-12-13T09:20:03.776Z,36.00
2018-12-13T09:21:03.756Z,37.10
2018-12-13T09:22:03.870Z,35.80
2018-12-13T09:23:03.737Z,37.30
2018-12-13T09:24:03.728Z,34.90
2018-12-13T09:25:03.718Z,36.50
2018-12-13T09:26:03.713Z,35.50
2018-12-13T09:27:03.692Z,33.40
2018-12-13T09:28:03.691Z,33.90
2018-12-13T09:29:03.671Z,35.10
2018-12-13T09:30:03.660Z,34.00
2018-12-13T09:31:03.695Z,34.10
2018-12-13T09:32:03.640Z,35.10
2018-12-13T09:33:03.636Z,38.30
2018-12-13T09:34:03.617Z,34.30
2018-12-13T09:35:03.607Z,33.10
2018-12-13T09:36:03.596Z,35.40
2018-12-13T09:37:03.594Z,32.50
2018-12-13T09:38:03.574Z,35.50
2018-12-13T09:39:03.583Z,30.40
2018-12-13T09:40:03.555Z,32.70
2018-12-13T09:41:03.550Z,31.00
2018-12-13T09:42:03.537Z,36.30
2018-12-13T09:43:03.520Z,37.60
2018-12-13T09:44:03.511Z,36.40
2018-12-13T09:45:03.535Z,36.20
2018-12-13T09:46:03.488Z,34.20
2018-12-13T09:47:03.478Z,34.80
2018-12-13T09:48:03.473Z,36.50
2018-12-13T09:49:03.458Z,34.40
2018-12-13T09:50:03.446Z,33.10
2018-12-13T09:51:03.443Z,33.50
2018-12-13T09:52:03.425Z,35.40
2018-12-13T09:53:03.415Z,32.30
2018-12-13T09:54:03.680Z,35.70
2018-12-13T09:55:05.738Z,34.30
2018-12-13T09:56:03.394Z,32.50
2018-12-13T09:57:03.371Z,34.90
2018-12-13T09:58:03.366Z,35.20
2018-12-13T09:59:03.373Z,34.80
2018-12-13T10:00:03.339Z,34.80
2018-12-13T10:01:03.327Z,33.80
2018-12-13T10:02:03.317Z,36.80
2018-12-13T10:03:03.307Z,33.40
2018-12-13T10:04:03.295Z,32.60
2018-12-13T10:05:03.302Z,33.80
2018-12-13T10:06:03.277Z,35.10
2018-12-13T10:07:03.264Z,34.50
2018-12-13T10:08:03.253Z,33.80
2018-12-13T10:09:03.242Z,33.40
2018-12-13T10:10:03.262Z,34.60
2018-12-13T10:11:03.226Z,34.20
2018-12-13T10:12:03.211Z,37.40
2018-12-13T10:13:03.199Z,32.30
2018-12-13T10:14:03.197Z,33.70
2018-12-13T10:15:03.177Z,34.50
2018-12-13T10:16:03.178Z,34.50
2018-12-13T10:17:03.157Z,32.90
2018-12-13T10:18:03.145Z,32.90
2018-12-13T10:19:03.138Z,32.40
2018-12-13T10:20:03.124Z,34.70
2018-12-13T10:21:03.126Z,31.80
2018-12-13T10:22:03.105Z,32.40
2018-12-13T10:23:03.094Z,32.30
2018-12-13T10:24:03.086Z,32.20
2018-12-13T10:25:03.079Z,31.50
2018-12-13T10:26:03.099Z,32.00
2018-12-13T10:27:03.052Z,32.00
2018-12-13T10:28:03.045Z,32.00
2018-12-13T10:29:03.027Z,32.30
2018-12-13T10:30:03.023Z,31.90
2018-12-13T10:31:03.009Z,32.10
2018-12-13T10:32:03.020Z,31.00
2018-12-13T10:33:02.986Z,31.10
2018-12-13T10:34:02.975Z,29.80
2018-12-13T10:35:02.963Z,33.00
2018-12-13T10:36:02.953Z,32.70
2018-12-13T10:37:02.942Z,33.60
2018-12-13T10:38:02.946Z,32.20
2018-12-13T10:39:02.924Z,29.30
2018-12-13T10:40:02.911Z,31.20
2018-12-13T10:41:02.901Z,31.20
2018-12-13T10:42:02.890Z,32.40
2018-12-13T10:43:02.897Z,30.60
2018-12-13T10:44:02.870Z,31.80
2018-12-13T10:45:02.897Z,28.80
2018-12-13T10:46:02.846Z,30.10
2018-12-13T10:47:02.837Z,31.50
2018-12-13T10:48:02.825Z,29.10
2018-12-13T10:49:02.814Z,28.40
2018-12-13T10:50:02.806Z,28.70
2018-12-13T10:51:02.806Z,27.40
2018-12-13T10:52:02.785Z,29.10
2018-12-13T10:53:02.776Z,29.00
2018-12-13T10:54:02.760Z,27.90
2018-12-13T10:55:02.749Z,27.20
2018-12-13T10:56:02.753Z,26.60
2018-12-13T10:57:02.730Z,26.90
2018-12-13T10:58:02.720Z,27.80
2018-12-13T10:59:02.713Z,27.00
2018-12-13T11:00:02.709Z,27.40
2018-12-13T11:01:02.688Z,29.60
2018-12-13T11:02:02.674Z,28.70
2018-12-13T11:03:02.663Z,29.50
2018-12-13T11:04:02.653Z,28.70
2018-12-13T11:05:02.654Z,27.30
2018-12-13T11:06:02.631Z,28.40
2018-12-13T11:07:02.620Z,24.90
2018-12-13T11:08:02.609Z,24.60
2018-12-13T11:09:02.600Z,24.40
2018-12-13T11:10:02.598Z,22.80
2018-12-13T11:11:02.578Z,24.00
2018-12-13T11:12:02.577Z,26.00
2018-12-13T11:13:02.559Z,22.50
2018-12-13T11:14:02.546Z,23.80
2018-12-13T11:15:02.537Z,24.80
2018-12-13T11:16:02.559Z,25.30
2018-12-13T11:17:02.518Z,27.40
2018-12-13T11:18:02.508Z,28.00
2018-12-13T11:19:02.492Z,26.40
2018-12-13T11:20:02.484Z,25.10
2018-12-13T11:21:02.470Z,26.80
2018-12-13T11:22:02.481Z,25.60
2018-12-13T11:23:02.449Z,24.50
2018-12-13T11:24:02.441Z,23.50
2018-12-13T11:25:02.429Z,23.70
2018-12-13T11:26:02.422Z,23.60
2018-12-13T11:27:02.407Z,23.00
2018-12-13T11:28:02.406Z,25.60
2018-12-13T11:29:02.385Z,25.70
2018-12-13T11:30:02.383Z,25.60
2018-12-13T11:31:02.364Z,23.90
2018-12-13T11:32:02.357Z,25.10
2018-12-13T11:33:02.355Z,23.40
2018-12-13T11:34:02.338Z,24.00
2018-12-13T11:35:02.327Z,25.20
2018-12-13T11:36:02.311Z,23.20
2018-12-13T11:37:02.299Z,23.60
2018-12-13T11:38:02.300Z,22.60
2018-12-13T11:39:05.715Z,25.60
2018-12-13T11:40:02.277Z,24.70
2018-12-13T11:41:02.259Z,26.00
2018-12-13T11:42:02.247Z,23.10
2018-12-13T11:43:02.238Z,25.80
2018-12-13T11:44:02.228Z,26.10
2018-12-13T11:45:02.227Z,27.90
2018-12-13T11:46:02.203Z,28.20
2018-12-13T11:47:02.201Z,28.90
2018-12-13T11:48:02.185Z,28.00
2018-12-13T11:49:02.173Z,30.10
2018-12-13T11:50:02.175Z,27.80
2018-12-13T11:51:02.166Z,31.30
2018-12-13T11:52:02.153Z,30.00
2018-12-13T11:53:02.130Z,35.00
2018-12-13T11:54:02.119Z,30.10
2018-12-13T11:55:02.111Z,30.70
2018-12-13T11:56:02.113Z,30.60
2018-12-13T11:57:02.090Z,32.50
2018-12-13T11:58:02.076Z,32.10
2018-12-13T11:59:02.065Z,28.40
2018-12-13T12:00:02.061Z,31.80
2018-12-13T12:01:02.053Z,28.70
2018-12-13T12:02:02.033Z,31.60
2018-12-13T12:03:02.026Z,30.20
2018-12-13T12:04:02.019Z,26.00
2018-12-13T12:05:02.005Z,27.10
2018-12-13T12:06:02.023Z,26.40
2018-12-13T12:07:01.997Z,26.00
2018-12-13T12:08:01.975Z,28.70
2018-12-13T12:09:01.966Z,28.20
2018-12-13T12:10:01.964Z,27.30
2018-12-13T12:11:01.939Z,26.60
2018-12-13T12:12:01.966Z,27.90
2018-12-13T12:13:01.918Z,26.80
2018-12-13T12:14:01.906Z,27.40
2018-12-13T12:15:03.246Z,27.40
2018-12-13T12:16:01.885Z,29.60
2018-12-13T12:17:01.874Z,28.00
2018-12-13T12:18:01.871Z,30.70
2018-12-13T12:19:01.854Z,29.00
2018-12-13T12:20:01.847Z,31.00
2018-12-13T12:21:01.835Z,29.90
2018-12-13T12:22:01.832Z,28.70
2018-12-13T12:23:01.811Z,30.20
2018-12-13T12:24:01.800Z,29.30
2018-12-13T12:25:01.796Z,31.90
2018-12-13T12:26:01.807Z,29.90
2018-12-13T12:27:01.767Z,29.70
2018-12-13T12:28:01.757Z,31.10
2018-12-13T12:29:01.750Z,30.90
2018-12-13T12:30:01.738Z,28.00
2018-12-13T12:31:01.727Z,28.70
2018-12-13T12:32:01.726Z,31.80
2018-12-13T12:33:01.707Z,32.10
2018-12-13T12:34:01.695Z,30.60
2018-12-13T12:35:01.683Z,31.00
2018-12-13T12:36:01.685Z,29.20
2018-12-13T12:37:01.661Z,30.30
2018-12-13T12:38:01.660Z,30.10
2018-12-13T12:39:01.643Z,29.80
2018-12-13T12:40:01.630Z,29.90
2018-12-13T12:41:01.618Z,31.20
2018-12-13T12:42:02.113Z,32.00
2018-12-13T12:43:01.606Z,28.70
2018-12-13T12:44:01.587Z,29.20
2018-12-13T12:45:01.576Z,30.10
2018-12-13T12:46:01.565Z,32.10
2018-12-13T12:47:01.556Z,32.90
2018-12-13T12:48:01.575Z,30.00
2018-12-13T12:49:01.535Z,30.50
2018-12-13T12:50:01.521Z,32.80
2018-12-13T12:51:01.511Z,35.10
2018-12-13T12:52:01.514Z,34.30